Raoul Island Kermadec Island, New Zealand
Current Conditions -  °F | °C
As of 3:00 AM on Sunday 21 Dec 2014 (Local Time) from NFTF Reporting Station
Scattered Clouds Scattered Clouds  
Wind Chill: 75°   Ceiling: Unl
Heat Index: 75°   Visibility: 6mi
Dew Point: 68°   Wind: 8mph
Humidity: 78%   Direction: 110°ESE
Pressure: 29.88"   Gusts: NA
Location:  29.25°S, 177.92°W
Report Text: NFTF 201500Z 11007KT 9999 SCT018 24/20 Q1012
Loading
Personal Weather Stations






























Interactive Weather Map New forecast layout! Learn more

10-Day Weather Forecast

Advertisements
Track Severe Weather on mobile